Dr. Ulrich Godt
Wetterdaten: aktuell Mittwoch, 26.02.2020 19:20
Datum Zeit Temp. A. Feuchte A. Luftdruck Regen Wind Richtung Richtung Sonnenschein Windchill
26.02.2020 19:20 3,0 C 85 % 1002,1 hPa 0,0 l/m 12,1 km/h (2 Bft) W-SW45 255 0 min -1,6 C
26.02.2020 19:10 3,0 C 85 % 1002,1 hPa 0,0 l/m 13,2 km/h (3 Bft) SW67.5 225 0 min -2,3 C
26.02.2020 18:59 3,1 C 84 % 1002,1 hPa 0,0 l/m 11,6 km/h (2 Bft) W-SW45 255 0 min -1,2 C
26.02.2020 18:49 3,1 C 84 % 1002,1 hPa 0,0 l/m 6,1 km/h (2 Bft) W22.5 260 0 min 3,1 C
26.02.2020 18:39 3,2 C 83 % 1002,1 hPa 0,0 l/m 11,4 km/h (2 Bft) W-SW45 250 0 min -0,9 C
26.02.2020 18:29 3,3 C 83 % 1001,1 hPa 0,0 l/m 1,8 km/h (1 Bft) W-NW45 285 0 min 3,3 C
26.02.2020 18:30 3,3 C 83 % 1001,1 hPa 0,0 l/m 1,8 km/h (1 Bft) W-NW45 285 0 min 3,3 C
26.02.2020 18:20 3,3 C 82 % 1001,1 hPa 0,0 l/m 13,0 km/h (3 Bft) W-NW67.5 285 0 min -1,8 C
26.02.2020 18:10 3,5 C 81 % 1001,1 hPa 0,0 l/m 13,3 km/h (3 Bft) W67.5 260 0 min -1,8 C
26.02.2020 17:59 3,6 C 80 % 1001,1 hPa 0,0 l/m 17,2 km/h (3 Bft) W-NW67.5 295 0 min -3,7 C
26.02.2020 17:49 3,7 C 80 % 1001,1 hPa 0,0 l/m 16,9 km/h (3 Bft) W-NW67.5 285 0 min -3,5 C
26.02.2020 17:39 3,9 C 80 % 1001,1 hPa 0,3 l/m 24,5 km/h (4 Bft) W67.5 275 0 min -6,3 C
26.02.2020 17:30 4,1 C 82 % 1000,0 hPa 0,0 l/m 20,3 km/h (4 Bft) W-NW67.5 285 0 min -4,5 C
26.02.2020 17:20 4,1 C 83 % 1000,0 hPa 0,0 l/m 19,8 km/h (3 Bft) W67.5 260 0 min -4,3 C
26.02.2020 17:09 4,2 C 84 % 1000,0 hPa 0,0 l/m 18,6 km/h (3 Bft) W-SW67.5 240 10 min -3,6 C
26.02.2020 16:59 4,0 C 84 % 1000,0 hPa 0,0 l/m 28,2 km/h (4 Bft) W-SW67.5 250 0 min -7,3 C
26.02.2020 16:49 3,9 C 85 % 1000,0 hPa 0,0 l/m 18,9 km/h (3 Bft) W-SW45 255 0 min -4,1 C
26.02.2020 16:40 3,7 C 84 % 999,0 hPa 0,3 l/m 11,8 km/h (2 Bft) W-SW67.5 240 0 min -0,6 C
26.02.2020 16:30 3,7 C 83 % 999,0 hPa 0,0 l/m 18,3 km/h (3 Bft) W-SW67.5 255 0 min -4,1 C
26.02.2020 16:20 3,7 C 82 % 999,0 hPa 0,0 l/m 11,1 km/h (2 Bft) W-NW67.5 300 0 min -0,1 C
26.02.2020 16:09 3,7 C 80 % 999,0 hPa 0,0 l/m 12,8 km/h (3 Bft) W-NW67.5 290 0 min -1,2 C
26.02.2020 15:59 3,9 C 79 % 999,0 hPa 0,7 l/m 14,3 km/h (3 Bft) W45 260 0 min -1,9 C
26.02.2020 15:49 4,2 C 79 % 999,0 hPa 0,3 l/m 13,5 km/h (3 Bft) W-SW67.5 245 0 min -1,1 C
26.02.2020 15:40 4,5 C 79 % 999,0 hPa 0,0 l/m 23,3 km/h (4 Bft) SW45 230 0 min -5,1 C
26.02.2020 15:30 4,7 C 79 % 998,0 hPa 0,0 l/m 14,4 km/h (3 Bft) W-SW67.5 240 0 min -1,0 C
26.02.2020 15:20 4,7 C 80 % 998,0 hPa 0,0 l/m 12,1 km/h (2 Bft) W-SW45 250 0 min 0,3 C
26.02.2020 15:09 4,6 C 82 % 998,0 hPa 0,0 l/m 18,0 km/h (3 Bft) SW45 230 10 min -2,8 C
26.02.2020 14:59 4,2 C 82 % 998,0 hPa 0,0 l/m 2,0 km/h (1 Bft) W22.5 260 0 min 4,2 C
26.02.2020 14:49 4,0 C 82 % 998,0 hPa 0,0 l/m 12,3 km/h (3 Bft) W22.5 270 0 min -0,6 C
26.02.2020 14:40 3,8 C 83 % 998,0 hPa 0,0 l/m 13,0 km/h (3 Bft) W-SW67.5 245 0 min -1,2 C
26.02.2020 14:30 3,6 C 83 % 998,0 hPa 0,0 l/m 18,3 km/h (3 Bft) W45 270 0 min -4,2 C
26.02.2020 14:20 3,3 C 85 % 998,0 hPa 0,0 l/m 12,3 km/h (3 Bft) W45 260 0 min -1,4 C
26.02.2020 14:09 3,2 C 86 % 998,0 hPa 0,0 l/m 14,0 km/h (3 Bft) W45 280 0 min -2,5 C
26.02.2020 13:59 3,1 C 87 % 998,1 hPa 0,0 l/m 12,3 km/h (3 Bft) W45 275 0 min -1,6 C
26.02.2020 13:49 2,9 C 87 % 998,1 hPa 0,0 l/m 19,3 km/h (3 Bft) W-SW67.5 255 0 min -5,6 C
26.02.2020 13:40 2,8 C 87 % 998,1 hPa 0,0 l/m 12,8 km/h (3 Bft) W67.5 265 0 min -2,3 C
26.02.2020 13:30 2,8 C 87 % 998,1 hPa 0,0 l/m 11,6 km/h (2 Bft) W-SW45 245 0 min -1,5 C
26.02.2020 13:20 2,8 C 87 % 997,1 hPa 0,0 l/m 12,6 km/h (3 Bft) W45 260 0 min -2,2 C
26.02.2020 13:09 2,7 C 87 % 997,1 hPa 0,0 l/m 16,5 km/h (3 Bft) W-NW45 290 0 min -4,5 C
26.02.2020 12:59 2,6 C 87 % 997,1 hPa 0,0 l/m 15,6 km/h (3 Bft) W-SW45 255 0 min -4,2 C
26.02.2020 12:49 2,6 C 87 % 997,1 hPa 0,0 l/m 16,7 km/h (3 Bft) W-NW45 295 0 min -4,7 C
26.02.2020 12:40 2,5 C 88 % 997,1 hPa 0,0 l/m 25,5 km/h (4 Bft) W-NW67.5 285 0 min -8,5 C
26.02.2020 12:30 2,3 C 88 % 997,1 hPa 0,0 l/m 17,1 km/h (3 Bft) W-SW67.5 250 0 min -5,3 C
26.02.2020 12:19 2,2 C 87 % 997,1 hPa 0,3 l/m 12,3 km/h (3 Bft) W-NW45 285 0 min -2,7 C
26.02.2020 12:09 2,2 C 87 % 996,1 hPa 0,0 l/m 9,6 km/h (2 Bft) W-SW45 255 0 min -0,7 C
26.02.2020 11:59 2,2 C 86 % 996,1 hPa 0,0 l/m 10,5 km/h (2 Bft) W45 260 0 min -1,4 C
26.02.2020 11:50 2,2 C 86 % 996,1 hPa 0,0 l/m 12,4 km/h (3 Bft) W45 275 0 min -2,7 C
26.02.2020 11:40 2,3 C 86 % 996,1 hPa 0,0 l/m 17,0 km/h (3 Bft) W-NW22.5 295 0 min -5,3 C
26.02.2020 11:30 2,3 C 88 % 996,1 hPa 0,3 l/m 16,4 km/h (3 Bft) W67.5 275 0 min -5,0 C
26.02.2020 11:19 2,2 C 90 % 995,1 hPa 0,0 l/m 14,0 km/h (3 Bft) W67.5 280 0 min -3,7 C
26.02.2020 11:09 2,1 C 90 % 995,1 hPa 0,0 l/m 6,7 km/h (2 Bft) W22.5 260 0 min 1,8 C
26.02.2020 10:59 2,0 C 90 % 995,1 hPa 0,0 l/m 12,1 km/h (2 Bft) W22.5 280 0 min -2,8 C
26.02.2020 10:50 1,8 C 90 % 995,1 hPa 0,0 l/m 2,5 km/h (1 Bft) W-NW22.5 285 0 min 1,8 C
26.02.2020 10:40 1,7 C 90 % 995,1 hPa 0,0 l/m 18,0 km/h (3 Bft) W-NW67.5 285 0 min -6,5 C
26.02.2020 10:30 1,6 C 89 % 994,1 hPa 0,0 l/m 3,9 km/h (1 Bft) W67.5 280 0 min 1,6 C
26.02.2020 10:19 1,6 C 89 % 994,1 hPa 0,0 l/m 16,2 km/h (3 Bft) W-SW45 255 0 min -5,7 C
26.02.2020 10:09 1,5 C 88 % 994,1 hPa 0,0 l/m 11,1 km/h (2 Bft) W-SW45 255 0 min -2,6 C
26.02.2020 09:59 1,5 C 87 % 994,1 hPa 0,0 l/m 11,3 km/h (2 Bft) W45 275 0 min -2,8 C
26.02.2020 09:50 1,5 C 87 % 994,1 hPa 0,0 l/m 13,1 km/h (3 Bft) W-NW67.5 295 0 min -4,0 C
26.02.2020 09:40 1,5 C 86 % 994,1 hPa 0,0 l/m 16,4 km/h (3 Bft) W67.5 270 0 min -5,9 C
26.02.2020 09:30 1,5 C 85 % 993,1 hPa 0,3 l/m 12,1 km/h (2 Bft) W-SW45 240 0 min -3,3 C
26.02.2020 09:19 1,5 C 85 % 993,1 hPa 0,0 l/m 10,3 km/h (2 Bft) W22.5 270 0 min -2,0 C
26.02.2020 09:09 1,7 C 85 % 993,1 hPa 0,0 l/m 14,3 km/h (3 Bft) W67.5 270 0 min -4,5 C
26.02.2020 08:59 1,9 C 85 % 993,0 hPa 0,0 l/m 13,9 km/h (3 Bft) W67.5 270 0 min -4,0 C
26.02.2020 08:50 1,9 C 85 % 993,0 hPa 0,3 l/m 9,5 km/h (2 Bft) W-SW45 240 0 min -1,0 C
26.02.2020 08:40 1,9 C 84 % 993,0 hPa 0,0 l/m 14,0 km/h (3 Bft) W-SW45 250 0 min -4,1 C
26.02.2020 08:29 1,9 C 84 % 992,0 hPa 0,0 l/m 12,0 km/h (2 Bft) W-SW45 255 0 min -2,8 C
26.02.2020 08:19 1,9 C 84 % 992,0 hPa 0,0 l/m 14,5 km/h (3 Bft) W-SW22.5 250 0 min -4,4 C
26.02.2020 08:09 2,1 C 83 % 992,0 hPa 0,0 l/m 19,3 km/h (3 Bft) W45 270 0 min -6,6 C
26.02.2020 08:00 2,1 C 82 % 992,0 hPa 0,0 l/m 15,5 km/h (3 Bft) W-SW45 245 0 min -4,7 C
26.02.2020 07:50 2,3 C 82 % 992,0 hPa 0,0 l/m 10,6 km/h (2 Bft) SW67.5 230 0 min -1,4 C
26.02.2020 07:40 2,3 C 82 % 992,0 hPa 0,0 l/m 15,8 km/h (3 Bft) SW45 230 0 min -4,6 C
26.02.2020 07:29 2,5 C 81 % 992,0 hPa 0,0 l/m 14,4 km/h (3 Bft) SW45 230 0 min -3,6 C
26.02.2020 07:19 2,7 C 80 % 991,0 hPa 0,0 l/m 11,7 km/h (2 Bft) W-SW67.5 240 0 min -1,7 C
26.02.2020 07:09 2,8 C 80 % 991,0 hPa 0,0 l/m 14,9 km/h (3 Bft) SW22.5 235 0 min -3,5 C
26.02.2020 07:00 3,0 C 79 % 990,9 hPa 0,0 l/m 22,0 km/h (4 Bft) SW45 215 0 min -6,6 C
26.02.2020 06:50 3,0 C 79 % 990,9 hPa 0,0 l/m 21,3 km/h (4 Bft) SW45 225 0 min -6,3 C
26.02.2020 06:40 3,0 C 80 % 990,9 hPa 0,0 l/m 14,6 km/h (3 Bft) S-SW45 210 0 min -3,1 C
26.02.2020 06:29 3,0 C 80 % 990,9 hPa 0,0 l/m 11,9 km/h (2 Bft) S-SW45 195 0 min -1,5 C
26.02.2020 06:19 3,0 C 81 % 990,9 hPa 0,0 l/m 16,8 km/h (3 Bft) SW45 230 0 min -4,3 C
26.02.2020 06:09 2,9 C 83 % 991,0 hPa 0,0 l/m 11,8 km/h (2 Bft) S-SW67.5 210 0 min -1,5 C
26.02.2020 06:00 2,9 C 83 % 991,0 hPa 0,0 l/m 6,8 km/h (2 Bft) S-SW 200 0 min 2,5 C
26.02.2020 05:50 2,8 C 83 % 991,0 hPa 0,0 l/m 11,6 km/h (2 Bft) S67.5 185 0 min -1,5 C
26.02.2020 05:39 2,8 C 84 % 991,0 hPa 0,0 l/m 16,1 km/h (3 Bft) W-SW45 245 0 min -4,2 C
26.02.2020 05:29 2,8 C 84 % 991,0 hPa 0,0 l/m 11,2 km/h (2 Bft) S22.5 190 0 min -1,2 C
26.02.2020 05:19 2,7 C 85 % 991,0 hPa 0,0 l/m 10,3 km/h (2 Bft) S22.5 185 0 min -0,7 C
26.02.2020 05:10 2,7 C 85 % 991,0 hPa 0,0 l/m 10,3 km/h (2 Bft) S45 180 0 min -0,7 C
26.02.2020 05:00 2,7 C 85 % 991,0 hPa 0,0 l/m 8,1 km/h (2 Bft) S-SO45 160 0 min 1,1 C
26.02.2020 04:50 2,7 C 85 % 991,0 hPa 0,0 l/m 0,2 km/h (0 Bft) S-SW 195 0 min 2,7 C
26.02.2020 04:39 2,7 C 85 % 991,0 hPa 0,0 l/m 0,0 km/h (0 Bft) W-SW 255 0 min 2,7 C
26.02.2020 04:29 2,7 C 85 % 992,0 hPa 0,0 l/m 0,0 km/h (0 Bft) W 260 0 min 2,7 C
26.02.2020 04:19 2,8 C 85 % 992,0 hPa 0,3 l/m 5,7 km/h (1 Bft) W 260 0 min 2,8 C
26.02.2020 04:10 2,8 C 85 % 992,0 hPa 0,0 l/m 7,0 km/h (2 Bft) W-NW45 290 0 min 2,2 C
26.02.2020 04:00 2,7 C 85 % 992,0 hPa 0,0 l/m 1,8 km/h (1 Bft) S-SW 210 0 min 2,7 C
26.02.2020 03:49 2,7 C 84 % 992,0 hPa 0,0 l/m 20,3 km/h (4 Bft) SW45 230 0 min -6,3 C
26.02.2020 03:39 2,8 C 83 % 992,0 hPa 0,0 l/m 1,3 km/h (1 Bft) W-NW 285 0 min 2,8 C
26.02.2020 03:29 3,0 C 84 % 992,0 hPa 0,3 l/m 2,7 km/h (1 Bft) W-NW45 285 0 min 3,0 C
26.02.2020 03:19 3,1 C 84 % 992,0 hPa 0,0 l/m 4,1 km/h (1 Bft) W45 265 0 min 3,1 C
26.02.2020 03:10 3,2 C 83 % 992,0 hPa 0,0 l/m 2,4 km/h (1 Bft) SW 235 0 min 3,2 C
26.02.2020 03:00 3,3 C 84 % 991,9 hPa 0,3 l/m 10,5 km/h (2 Bft) SW45 230 0 min -0,2 C
26.02.2020 02:49 3,4 C 84 % 991,9 hPa 0,3 l/m 20,1 km/h (4 Bft) W-SW45 240 0 min -5,3 C
26.02.2020 02:39 3,4 C 83 % 991,9 hPa 0,0 l/m 6,1 km/h (2 Bft) SW22.5 230 0 min 3,4 C
26.02.2020 02:29 3,3 C 83 % 991,9 hPa 0,0 l/m 0,0 km/h (0 Bft) W-SW 240 0 min 3,3 C
26.02.2020 02:20 3,2 C 83 % 992,0 hPa 0,0 l/m 0,0 km/h (0 Bft) W-SW 245 0 min 3,2 C
26.02.2020 02:10 3,1 C 84 % 993,0 hPa 0,0 l/m 0,0 km/h (0 Bft) W-SW 245 0 min 3,1 C
26.02.2020 02:00 3,1 C 84 % 993,0 hPa 0,0 l/m 0,0 km/h (0 Bft) W-SW 245 0 min 3,1 C
26.02.2020 01:49 3,0 C 84 % 993,0 hPa 0,0 l/m 0,0 km/h (0 Bft) W-SW 245 0 min 3,0 C
26.02.2020 01:39 2,9 C 84 % 993,0 hPa 0,0 l/m 0,0 km/h (0 Bft) W-SW 245 0 min 2,9 C
26.02.2020 01:29 2,8 C 84 % 993,0 hPa 0,0 l/m 0,0 km/h (0 Bft) W-SW 245 0 min 2,8 C
26.02.2020 01:20 2,6 C 83 % 993,0 hPa 0,0 l/m 0,0 km/h (0 Bft) W-SW 245 0 min 2,6 C
26.02.2020 01:10 2,5 C 83 % 993,0 hPa 0,0 l/m 0,0 km/h (0 Bft) W-SW 245 0 min 2,5 C
26.02.2020 00:59 2,5 C 83 % 993,0 hPa 0,0 l/m 0,0 km/h (0 Bft) W-SW 245 0 min 2,5 C
26.02.2020 00:49 2,3 C 83 % 993,0 hPa 0,0 l/m 0,2 km/h (0 Bft) W-SW 245 0 min 2,3 C
26.02.2020 00:39 2,3 C 82 % 993,0 hPa 0,0 l/m 0,0 km/h (0 Bft) W-SW 245 0 min 2,3 C
26.02.2020 00:30 2,3 C 82 % 993,0 hPa 0,0 l/m 0,0 km/h (0 Bft) SW 215 0 min 2,3 C
26.02.2020 00:20 2,3 C 82 % 993,0 hPa 0,0 l/m 0,0 km/h (0 Bft) SW 220 0 min 2,3 C
26.02.2020 00:09 2,5 C 82 % 994,0 hPa 0,0 l/m 0,0 km/h (0 Bft) S-SW 210 0 min 2,5 C
_ Min-Zeit 09:19 06:50 06:19 - 00:09 - - - 12:40
Minimum _ 1,5 C 79 % 990,9 hPa - 0,0 km/h (0 Bft) - - - -8,5 C
_ Max-Zeit 15:20 10:40 19:10 15:59 16:59 - - 15:09 14:59
Maximum _ 4,7 C 90 % 1002,1 hPa 0,7 l/m 28,2 km/h
W-SW (4 Bft)
- - 10 min 4,2 C
Durchschnitt _ 2,8 C 84 % 995,1 hPa #4,3 l/m 11,1 km/h (2 Bft) W-SW - #20 min. -1,5 C